Time;durP1;ratioP1;P1;durP2;ratioP2;P2;SDS_P1;SDS_P2;PMS_P1;PMS_P2;Temp;Humidity;BMP_temperature;BMP_pressure;BME280_temperature;BME280_humidity;BME280_pressure;Samples;Min_cycle;Max_cycle;Signal;HPM_P1;HPM_P2
2021/04/03 00:00:07;;;;;;;9.30;3.80;;;7.60;99.90;;;;;;5004251;28;20446;-54
2021/04/03 00:02:34;;;;;;;6.93;3.40;;;7.70;99.90;;;;;;5003717;28;20470;-53
2021/04/03 00:05:00;;;;;;;5.53;3.33;;;7.60;99.90;;;;;;5003506;28;20442;-55
2021/04/03 00:07:28;;;;;;;7.33;3.47;;;7.70;99.90;;;;;;5004067;28;20485;-54
2021/04/03 00:09:54;;;;;;;6.57;4.40;;;7.60;99.90;;;;;;5004096;28;20449;-48
2021/04/03 00:12:20;;;;;;;5.20;3.20;;;7.60;99.90;;;;;;5004373;28;20456;-50
2021/04/03 00:14:46;;;;;;;6.00;3.63;;;7.60;99.90;;;;;;5005105;28;20458;-55
2021/04/03 00:17:13;;;;;;;7.27;3.53;;;7.50;99.90;;;;;;5004504;28;20458;-56
2021/04/03 00:19:40;;;;;;;6.57;3.50;;;7.50;99.90;;;;;;5004982;28;20449;-56
2021/04/03 00:22:06;;;;;;;5.50;2.77;;;7.50;99.90;;;;;;5004025;28;20497;-54
2021/04/03 00:24:33;;;;;;;11.10;4.37;;;7.40;99.90;;;;;;5003835;28;20470;-52
2021/04/03 00:26:59;;;;;;;5.70;3.97;;;7.40;99.90;;;;;;5004510;28;20460;-48
2021/04/03 00:29:25;;;;;;;11.00;4.40;;;7.40;99.90;;;;;;5004148;28;20811;-51
2021/04/03 00:31:51;;;;;;;8.83;3.27;;;7.30;99.90;;;;;;5003755;28;20457;-55
2021/04/03 00:34:17;;;;;;;9.07;3.70;;;7.30;99.90;;;;;;5004275;28;20453;-53
2021/04/03 00:36:44;;;;;;;6.17;2.87;;;7.30;99.90;;;;;;5004155;28;20458;-56
2021/04/03 00:39:10;;;;;;;5.97;4.57;;;7.30;99.90;;;;;;5004471;28;20449;-49
2021/04/03 00:41:36;;;;;;;6.37;3.33;;;7.30;99.90;;;;;;5004088;28;20477;-50
2021/04/03 00:44:07;;;;;;;5.43;4.37;;;7.30;99.90;;;;;;5003429;28;20442;-53
2021/04/03 00:46:33;;;;;;;8.20;3.33;;;7.30;99.90;;;;;;5004389;28;20449;-54
2021/04/03 00:48:59;;;;;;;9.47;3.90;;;7.20;99.90;;;;;;5003370;28;20468;-56
2021/04/03 00:51:25;;;;;;;6.30;3.60;;;7.30;99.90;;;;;;5003331;28;20914;-52
2021/04/03 00:53:52;;;;;;;9.03;4.13;;;7.30;99.90;;;;;;5003500;28;20469;-51
2021/04/03 00:56:18;;;;;;;8.13;4.40;;;7.20;99.90;;;;;;5003698;28;20442;-50
2021/04/03 00:58:45;;;;;;;7.00;3.57;;;7.20;99.90;;;;;;5003701;28;20927;-51
2021/04/03 01:01:11;;;;;;;5.73;3.50;;;7.20;99.90;;;;;;5003752;28;20450;-51
2021/04/03 01:03:37;;;;;;;10.93;4.30;;;7.20;99.90;;;;;;5003520;28;20453;-56
2021/04/03 01:06:04;;;;;;;6.67;3.37;;;7.10;99.90;;;;;;5003545;28;20454;-54
2021/04/03 01:08:32;;;;;;;12.87;4.57;;;7.10;99.90;;;;;;5003233;28;20478;-56
2021/04/03 01:11:00;;;;;;;6.50;4.00;;;7.00;99.90;;;;;;5003643;28;20461;-54
2021/04/03 01:13:44;;;;;;;8.40;3.93;;;7.00;99.90;;;;;;5003697;28;20508;-53
2021/04/03 01:16:14;;;;;;;8.07;3.50;;;7.00;99.90;;;;;;5003993;28;20458;-53
2021/04/03 01:18:59;;;;;;;13.97;3.30;;;7.00;99.90;;;;;;5004357;28;20449;-54
2021/04/03 01:21:33;;;;;;;10.20;3.90;;;6.90;99.90;;;;;;5003874;28;20759;-54
2021/04/03 01:24:21;;;;;;;7.40;4.73;;;6.90;99.90;;;;;;5003210;28;20446;-52
2021/04/03 01:27:14;;;;;;;8.10;3.83;;;6.90;99.90;;;;;;5002405;28;20492;-50
2021/04/03 01:30:04;;;;;;;9.20;3.40;;;6.80;99.90;;;;;;5003121;28;20521;-52
2021/04/03 01:32:37;;;;;;;9.33;4.10;;;6.80;99.90;;;;;;5003700;28;20874;-54
2021/04/03 01:35:06;;;;;;;9.40;3.87;;;6.80;99.90;;;;;;5003797;28;20441;-55
2021/04/03 01:37:34;;;;;;;7.50;4.53;;;6.80;99.90;;;;;;5003330;28;20447;-55
2021/04/03 01:40:01;;;;;;;9.20;4.53;;;6.70;99.90;;;;;;5002982;28;20540;-56
2021/04/03 01:42:33;;;;;;;6.20;3.70;;;6.70;99.90;;;;;;5003546;28;20489;-56
2021/04/03 01:45:01;;;;;;;6.47;3.43;;;6.70;99.90;;;;;;5003786;28;20422;-52
2021/04/03 01:47:30;;;;;;;9.70;4.00;;;6.70;99.90;;;;;;5003768;28;20458;-53
2021/04/03 01:49:59;;;;;;;5.87;3.50;;;6.60;99.90;;;;;;5004631;28;20450;-49
2021/04/03 01:52:28;;;;;;;9.30;3.43;;;6.60;99.90;;;;;;5004932;28;20434;-51
2021/04/03 01:54:56;;;;;;;5.90;3.83;;;6.60;99.90;;;;;;5004462;28;20450;-49
2021/04/03 01:57:24;;;;;;;8.47;4.10;;;6.60;99.90;;;;;;5004283;28;20454;-54
2021/04/03 01:59:53;;;;;;;8.10;4.20;;;6.60;99.90;;;;;;5003632;28;20450;-55
2021/04/03 02:02:21;;;;;;;6.43;3.70;;;6.50;99.90;;;;;;5003174;28;20970;-55
2021/04/03 02:04:49;;;;;;;9.40;3.50;;;6.50;99.90;;;;;;5002973;28;20461;-54
2021/04/03 02:07:18;;;;;;;13.93;4.83;;;6.50;99.90;;;;;;5002467;28;20544;-53
2021/04/03 02:09:47;;;;;;;6.10;3.63;;;6.50;99.90;;;;;;5002475;28;20450;-54
2021/04/03 02:12:14;;;;;;;6.63;3.70;;;6.50;99.90;;;;;;5003912;28;20787;-51
2021/04/03 02:14:41;;;;;;;6.37;3.70;;;6.50;99.90;;;;;;5003074;28;20457;-50
2021/04/03 02:17:08;;;;;;;5.50;3.73;;;6.50;99.90;;;;;;5003449;28;20933;-52
2021/04/03 02:19:35;;;;;;;15.00;3.63;;;6.60;99.90;;;;;;5003601;28;20445;-53
2021/04/03 02:22:03;;;;;;;13.83;4.13;;;6.50;99.90;;;;;;5003137;28;20489;-51
2021/04/03 02:24:29;;;;;;;13.30;4.17;;;6.50;99.90;;;;;;5003164;28;20520;-55
2021/04/03 02:26:56;;;;;;;10.17;4.17;;;6.40;99.90;;;;;;5003196;28;20456;-56
2021/04/03 02:29:22;;;;;;;11.40;4.80;;;6.50;99.90;;;;;;5003056;28;20439;-56
2021/04/03 02:31:49;;;;;;;13.03;4.93;;;6.40;99.90;;;;;;5003542;28;20445;-49
2021/04/03 02:34:15;;;;;;;9.30;4.40;;;6.40;99.90;;;;;;5004378;28;20434;-49
2021/04/03 02:36:41;;;;;;;7.67;3.80;;;6.30;99.90;;;;;;5004926;28;20446;-54
2021/04/03 02:39:08;;;;;;;6.87;3.83;;;6.30;99.90;;;;;;5004994;28;20454;-51
2021/04/03 02:41:40;;;;;;;13.57;5.27;;;6.30;99.90;;;;;;5004420;28;20492;-55
2021/04/03 02:44:14;;;;;;;8.47;3.93;;;6.30;99.90;;;;;;5004100;28;20446;-50
2021/04/03 02:46:45;;;;;;;8.87;4.50;;;6.20;99.90;;;;;;5003291;28;20853;-51
2021/04/03 02:49:17;;;;;;;6.40;4.50;;;6.30;99.90;;;;;;5003400;28;20426;-53
2021/04/03 02:51:47;;;;;;;8.83;4.60;;;6.20;99.90;;;;;;5003526;28;20816;-55
2021/04/03 02:54:15;;;;;;;10.50;4.10;;;6.20;99.90;;;;;;5004437;28;20450;-59
2021/04/03 02:56:43;;;;;;;9.40;4.67;;;6.20;99.90;;;;;;5008578;28;20446;-56
2021/04/03 02:59:16;;;;;;;9.40;4.60;;;6.20;99.90;;;;;;5008975;28;20450;-56
2021/04/03 03:01:45;;;;;;;6.93;4.10;;;6.10;99.90;;;;;;5008069;28;20542;-58
2021/04/03 03:04:13;;;;;;;12.20;4.07;;;6.10;99.90;;;;;;5009195;28;20465;-55
2021/04/03 03:06:40;;;;;;;12.73;6.10;;;6.10;99.90;;;;;;5008851;28;20509;-58
2021/04/03 03:09:06;;;;;;;8.17;4.67;;;6.00;99.90;;;;;;5008019;28;20454;-54
2021/04/03 03:11:35;;;;;;;11.97;4.50;;;6.00;99.90;;;;;;5008994;28;20441;-58
2021/04/03 03:14:02;;;;;;;12.00;5.03;;;6.00;99.90;;;;;;5007979;28;20454;-56
2021/04/03 03:16:29;;;;;;;11.30;4.60;;;6.00;99.90;;;;;;5007571;28;20450;-57
2021/04/03 03:18:56;;;;;;;11.87;3.87;;;6.00;99.90;;;;;;5008495;28;20450;-55
2021/04/03 03:21:23;;;;;;;6.73;3.47;;;5.90;99.90;;;;;;5008995;28;20446;-55
2021/04/03 03:23:49;;;;;;;5.23;3.90;;;5.90;99.90;;;;;;5008618;28;20453;-57
2021/04/03 03:26:16;;;;;;;7.20;4.13;;;5.80;99.90;;;;;;5008003;28;20460;-57
2021/04/03 03:28:43;;;;;;;8.23;4.80;;;5.80;99.90;;;;;;5007087;28;20505;-57
2021/04/03 03:31:09;;;;;;;12.93;4.73;;;5.90;99.90;;;;;;5008200;28;20469;-58
2021/04/03 03:33:35;;;;;;;6.53;4.43;;;5.80;99.90;;;;;;5007959;28;20477;-57
2021/04/03 03:36:02;;;;;;;7.77;3.90;;;5.80;99.90;;;;;;5007749;28;20457;-56
2021/04/03 03:38:29;;;;;;;6.70;4.40;;;5.80;99.90;;;;;;5007385;28;20454;-55
2021/04/03 03:40:55;;;;;;;9.40;4.77;;;5.80;99.90;;;;;;5007895;28;20450;-56
2021/04/03 03:43:22;;;;;;;7.27;4.07;;;5.80;99.90;;;;;;5007637;28;20482;-55
2021/04/03 03:45:49;;;;;;;9.70;4.87;;;5.80;99.90;;;;;;5007508;28;20438;-56
2021/04/03 03:48:15;;;;;;;15.33;5.17;;;5.90;99.90;;;;;;5006789;28;20473;-57
2021/04/03 03:50:41;;;;;;;10.10;4.90;;;5.90;99.90;;;;;;5007459;28;20469;-55
2021/04/03 03:53:07;;;;;;;8.87;5.00;;;5.90;99.90;;;;;;5006970;28;20434;-56
2021/04/03 03:55:34;;;;;;;11.33;5.37;;;5.90;99.90;;;;;;5006575;28;20481;-56
2021/04/03 03:58:00;;;;;;;10.93;4.00;;;5.80;99.90;;;;;;5006941;28;20441;-54
2021/04/03 04:00:26;;;;;;;9.53;4.60;;;5.80;99.90;;;;;;5007903;28;20656;-57
2021/04/03 04:02:53;;;;;;;9.70;3.73;;;5.80;99.90;;;;;;5008292;28;20482;-56
2021/04/03 04:05:19;;;;;;;8.33;4.30;;;5.80;99.90;;;;;;5009271;28;20476;-57
2021/04/03 04:07:45;;;;;;;7.50;4.60;;;5.70;99.90;;;;;;5009192;28;20485;-57
2021/04/03 04:10:13;;;;;;;10.53;4.07;;;5.70;99.90;;;;;;5009562;28;20458;-59
2021/04/03 04:12:39;;;;;;;10.00;4.50;;;5.70;99.90;;;;;;5009633;28;20453;-57
2021/04/03 04:15:07;;;;;;;9.37;4.70;;;5.70;99.90;;;;;;5009439;28;20453;-58
2021/04/03 04:17:34;;;;;;;10.40;5.07;;;5.60;99.90;;;;;;5008477;28;20472;-56
2021/04/03 04:20:02;;;;;;;8.37;4.73;;;5.60;99.90;;;;;;5009063;28;20453;-58
2021/04/03 04:22:28;;;;;;;9.60;4.67;;;5.60;99.90;;;;;;5008195;28;20477;-57
2021/04/03 04:24:54;;;;;;;7.77;4.60;;;5.60;99.90;;;;;;5008066;28;20461;-56
2021/04/03 04:27:20;;;;;;;15.23;4.70;;;5.60;99.90;;;;;;5008539;28;20512;-57
2021/04/03 04:29:46;;;;;;;9.27;4.90;;;5.60;99.90;;;;;;5011928;28;20446;-58
2021/04/03 04:32:12;;;;;;;9.90;5.17;;;5.60;99.90;;;;;;5012296;28;20477;-57
2021/04/03 04:34:38;;;;;;;15.90;4.90;;;5.60;99.90;;;;;;5011228;28;20497;-57
2021/04/03 04:37:05;;;;;;;10.10;5.27;;;5.60;99.90;;;;;;5011075;28;20442;-57
2021/04/03 04:39:32;;;;;;;7.97;4.33;;;5.50;99.90;;;;;;5011650;28;20446;-57
2021/04/03 04:41:58;;;;;;;8.07;4.60;;;5.50;99.90;;;;;;5011515;28;20793;-56
2021/04/03 04:44:24;;;;;;;7.83;5.23;;;5.50;99.90;;;;;;5010505;28;20458;-58
2021/04/03 04:46:50;;;;;;;6.30;3.77;;;5.50;99.90;;;;;;5011523;28;20442;-56
2021/04/03 04:49:16;;;;;;;19.80;5.27;;;5.50;99.90;;;;;;5011808;28;20457;-57
2021/04/03 04:51:43;;;;;;;11.47;4.90;;;5.50;99.90;;;;;;5011090;28;20570;-58
2021/04/03 04:54:10;;;;;;;8.50;5.10;;;5.50;99.90;;;;;;5011218;28;20445;-57
2021/04/03 04:56:36;;;;;;;6.93;4.23;;;5.50;99.90;;;;;;5011070;28;20446;-59
2021/04/03 04:59:02;;;;;;;6.60;3.83;;;5.50;99.90;;;;;;5011689;28;20826;-58
2021/04/03 05:01:28;;;;;;;6.50;3.80;;;5.50;99.90;;;;;;5010875;28;20458;-55
2021/04/03 05:03:54;;;;;;;13.20;4.40;;;5.60;99.90;;;;;;5011952;28;20496;-53
2021/04/03 05:06:20;;;;;;;11.90;4.80;;;5.50;99.90;;;;;;5011554;28;20448;-53
2021/04/03 05:08:46;;;;;;;12.70;4.97;;;5.50;99.90;;;;;;5012312;28;20451;-57
2021/04/03 05:11:13;;;;;;;6.87;4.43;;;5.60;99.90;;;;;;5010878;28;20478;-53
2021/04/03 05:13:40;;;;;;;8.00;3.60;;;5.60;99.90;;;;;;5011698;28;20474;-56
2021/04/03 05:16:06;;;;;;;14.23;4.60;;;5.60;99.90;;;;;;5011728;28;20457;-58
2021/04/03 05:18:32;;;;;;;5.60;3.50;;;5.60;99.90;;;;;;5011170;28;20445;-54
2021/04/03 05:20:58;;;;;;;6.33;4.40;;;5.70;99.90;;;;;;5010694;28;20484;-57
2021/04/03 05:23:24;;;;;;;7.50;4.00;;;5.70;99.90;;;;;;5011317;28;20478;-57
2021/04/03 05:25:50;;;;;;;8.77;4.90;;;5.70;99.90;;;;;;5011760;28;20521;-58
2021/04/03 05:28:17;;;;;;;8.30;4.57;;;5.70;99.90;;;;;;5011521;28;20978;-57
2021/04/03 05:30:44;;;;;;;8.60;6.07;;;5.70;99.90;;;;;;5010607;28;20446;-57
2021/04/03 05:33:10;;;;;;;11.13;4.70;;;5.60;99.90;;;;;;5010677;28;20959;-57
2021/04/03 05:35:37;;;;;;;8.50;4.60;;;5.60;99.90;;;;;;5011039;28;20450;-57
2021/04/03 05:38:04;;;;;;;9.20;5.00;;;5.70;99.90;;;;;;5011759;28;20446;-58
2021/04/03 05:40:30;;;;;;;8.20;5.20;;;5.70;99.90;;;;;;5010254;28;20438;-57
2021/04/03 05:42:58;;;;;;;14.20;6.40;;;5.70;99.90;;;;;;5011133;28;20481;-56
2021/04/03 05:45:27;;;;;;;11.80;5.50;;;5.60;99.90;;;;;;5010557;28;20446;-53
2021/04/03 05:47:55;;;;;;;11.60;4.70;;;5.60;99.90;;;;;;5010889;28;20434;-57
2021/04/03 05:50:21;;;;;;;8.60;4.57;;;5.60;99.90;;;;;;5010637;28;20472;-57
2021/04/03 05:52:48;;;;;;;8.67;6.00;;;5.60;99.90;;;;;;5011342;28;20442;-58
2021/04/03 05:55:14;;;;;;;13.03;4.00;;;5.50;99.90;;;;;;5011473;28;20446;-56
2021/04/03 05:57:40;;;;;;;9.93;4.63;;;5.60;99.90;;;;;;5011291;28;20507;-57
2021/04/03 06:00:08;;;;;;;9.53;4.87;;;5.60;99.90;;;;;;5011396;28;20438;-56
2021/04/03 06:02:37;;;;;;;7.47;3.93;;;5.60;99.90;;;;;;5012047;28;20482;-55
2021/04/03 06:05:04;;;;;;;13.13;5.67;;;5.60;99.90;;;;;;5012325;28;20438;-54
2021/04/03 06:07:31;;;;;;;5.63;2.93;;;5.60;99.90;;;;;;5011217;28;20474;-57
2021/04/03 06:09:59;;;;;;;7.53;5.60;;;5.60;99.90;;;;;;5010941;28;20460;-56
2021/04/03 06:12:38;;;;;;;9.23;4.40;;;5.60;99.90;;;;;;5009807;28;20442;-55
2021/04/03 06:15:06;;;;;;;9.87;4.00;;;5.70;99.90;;;;;;5008363;28;20453;-58
2021/04/03 06:17:32;;;;;;;5.20;2.73;;;5.70;99.90;;;;;;5007681;28;20477;-58
2021/04/03 06:19:59;;;;;;;5.23;3.40;;;5.80;99.90;;;;;;5008316;28;20462;-58
2021/04/03 06:22:26;;;;;;;5.83;4.17;;;5.90;99.90;;;;;;5008504;28;20488;-58
2021/04/03 06:25:04;;;;;;;10.10;3.43;;;5.90;99.90;;;;;;5008364;28;20473;-57
2021/04/03 06:27:30;;;;;;;6.93;2.73;;;6.00;99.90;;;;;;5006909;28;20462;-55
2021/04/03 06:29:57;;;;;;;7.47;3.00;;;6.00;99.90;;;;;;5006865;28;20442;-58
2021/04/03 06:32:28;;;;;;;4.67;2.73;;;6.10;99.90;;;;;;5006739;28;20554;-57
2021/04/03 06:34:55;;;;;;;8.27;2.50;;;6.20;99.90;;;;;;5007201;28;20466;-57
2021/04/03 06:37:26;;;;;;;3.47;2.40;;;6.20;99.90;;;;;;5006913;28;20453;-58
2021/04/03 06:39:54;;;;;;;6.17;3.00;;;6.20;99.90;;;;;;5007207;28;20454;-58
2021/04/03 06:42:41;;;;;;;3.40;2.67;;;6.30;99.90;;;;;;5007594;28;20492;-57
2021/04/03 06:45:31;;;;;;;5.80;3.10;;;6.30;99.90;;;;;;5007462;28;20481;-57
2021/04/03 06:47:58;;;;;;;5.47;2.80;;;6.40;99.90;;;;;;5006054;28;20446;-58
2021/04/03 06:50:27;;;;;;;4.13;2.87;;;6.40;99.90;;;;;;5005592;28;20936;-56
2021/04/03 06:52:54;;;;;;;4.20;2.30;;;6.50;99.90;;;;;;5006011;28;20442;-55
2021/04/03 06:55:23;;;;;;;7.20;3.33;;;6.50;99.90;;;;;;5005548;28;20438;-58
2021/04/03 06:57:50;;;;;;;5.00;2.80;;;6.50;99.90;;;;;;5005551;28;20524;-56
2021/04/03 07:00:17;;;;;;;4.67;2.63;;;6.50;99.90;;;;;;5005315;28;20450;-57
2021/04/03 07:02:56;;;;;;;7.03;3.13;;;6.60;99.90;;;;;;5005669;28;20505;-58
2021/04/03 07:05:23;;;;;;;6.73;3.00;;;6.60;99.90;;;;;;5005697;28;20915;-57
2021/04/03 07:07:49;;;;;;;7.70;2.47;;;6.60;99.90;;;;;;5005062;28;20488;-57
2021/04/03 07:10:18;;;;;;;4.40;2.93;;;6.70;99.90;;;;;;5004475;28;20677;-57
2021/04/03 07:12:44;;;;;;;4.70;2.07;;;6.80;99.90;;;;;;5003432;28;20445;-56
2021/04/03 07:15:12;;;;;;;11.67;2.87;;;6.90;99.90;;;;;;5004001;28;20458;-54
2021/04/03 07:17:40;;;;;;;2.63;2.00;;;7.00;99.90;;;;;;5003469;28;20921;-56
2021/04/03 07:20:11;;;;;;;3.40;2.30;;;7.10;99.90;;;;;;5003618;28;20461;-58
2021/04/03 07:22:40;;;;;;;5.43;1.90;;;7.20;99.90;;;;;;5003667;28;20481;-56
2021/04/03 07:25:08;;;;;;;3.13;1.63;;;7.20;99.90;;;;;;5003905;28;20445;-58
2021/04/03 07:27:39;;;;;;;3.70;2.00;;;7.30;99.90;;;;;;5004073;28;20832;-58
2021/04/03 07:30:06;;;;;;;3.50;1.93;;;7.30;99.90;;;;;;5004555;28;20445;-57
2021/04/03 07:32:37;;;;;;;3.03;2.10;;;7.40;99.90;;;;;;5003891;28;20515;-55
2021/04/03 07:35:20;;;;;;;1.77;1.27;;;7.40;99.90;;;;;;5004104;28;20483;-57
2021/04/03 07:37:48;;;;;;;4.53;2.17;;;7.50;99.90;;;;;;5004249;28;20431;-57
2021/04/03 07:40:35;;;;;;;4.43;1.73;;;7.50;99.90;;;;;;5003397;28;20469;-58
2021/04/03 07:43:03;;;;;;;1.47;1.37;;;7.50;99.90;;;;;;5003603;28;20522;-57
2021/04/03 07:45:47;;;;;;;2.17;1.23;;;7.60;99.90;;;;;;5003761;28;20490;-59
2021/04/03 07:48:45;;;;;;;2.93;1.23;;;7.60;99.90;;;;;;5002592;28;20461;-56
2021/04/03 07:51:12;;;;;;;3.40;1.20;;;7.70;99.90;;;;;;5003094;28;20431;-58
2021/04/03 07:53:43;;;;;;;4.93;2.17;;;7.80;99.90;;;;;;5001526;28;20442;-56
2021/04/03 07:56:10;;;;;;;3.40;1.70;;;8.00;99.90;;;;;;5001397;28;20826;-56
2021/04/03 07:58:45;;;;;;;2.20;1.60;;;8.10;99.90;;;;;;5001331;28;20446;-60
2021/04/03 08:01:11;;;;;;;3.93;1.43;;;8.20;99.90;;;;;;5001852;28;20456;-56
2021/04/03 08:03:37;;;;;;;3.50;1.73;;;8.20;99.90;;;;;;5005193;28;20528;-57
2021/04/03 08:06:06;;;;;;;2.40;1.47;;;8.30;99.90;;;;;;5006028;28;20445;-56
2021/04/03 08:08:34;;;;;;;2.53;1.70;;;8.40;99.90;;;;;;4987005;28;20446;-58
2021/04/03 08:11:11;;;;;;;2.90;1.40;;;8.50;99.90;;;;;;4987170;28;20442;-57
2021/04/03 08:13:41;;;;;;;4.40;1.67;;;8.70;99.90;;;;;;4986652;28;20493;-54
2021/04/03 08:16:10;;;;;;;6.13;1.83;;;9.00;99.90;;;;;;4985258;28;20481;-57
2021/04/03 08:18:39;;;;;;;2.70;1.30;;;10.30;99.90;;;;;;4984010;28;20450;-57
2021/04/03 08:21:06;;;;;;;1.83;1.30;;;11.90;97.50;;;;;;4983079;28;20928;-58
2021/04/03 08:23:35;;;;;;;2.23;1.80;;;13.50;90.20;;;;;;4982037;28;20490;-58
2021/04/03 08:26:02;;;;;;;2.60;1.60;;;15.10;73.80;;;;;;4982024;28;20778;-58
2021/04/03 08:28:29;;;;;;;4.20;1.57;;;16.40;66.70;;;;;;4981159;28;20447;-57
2021/04/03 08:30:56;;;;;;;3.03;1.80;;;17.80;58.10;;;;;;4981375;28;20459;-57
2021/04/03 08:33:22;;;;;;;1.83;1.20;;;19.00;53.40;;;;;;4980450;28;20442;-57
2021/04/03 08:35:50;;;;;;;3.50;1.87;;;20.00;48.80;;;;;;4980770;28;20785;-58
2021/04/03 08:38:23;;;;;;;2.80;1.60;;;21.30;43.80;;;;;;4979863;28;20948;-57
2021/04/03 08:40:51;;;;;;;3.63;2.50;;;21.70;40.80;;;;;;4979447;28;20457;-57
2021/04/03 08:43:18;;;;;;;2.43;1.37;;;20.70;41.00;;;;;;4979982;28;20478;-57
2021/04/03 08:45:47;;;;;;;4.40;1.50;;;20.90;41.30;;;;;;4979947;28;20475;-56
2021/04/03 08:48:15;;;;;;;2.70;1.37;;;21.50;39.80;;;;;;4979969;28;20546;-57
2021/04/03 08:50:43;;;;;;;2.20;1.93;;;22.10;38.50;;;;;;4979567;28;20552;-56
2021/04/03 08:53:09;;;;;;;1.97;1.73;;;22.30;38.00;;;;;;4979331;28;20896;-57
2021/04/03 08:55:36;;;;;;;2.57;1.70;;;22.10;37.60;;;;;;4979502;28;20890;-56
2021/04/03 08:58:03;;;;;;;2.93;1.27;;;21.80;37.80;;;;;;4979482;28;20481;-58
2021/04/03 09:00:30;;;;;;;2.30;1.20;;;21.40;37.90;;;;;;4980396;28;20455;-54
2021/04/03 09:02:58;;;;;;;1.73;1.40;;;20.10;38.50;;;;;;4980503;28;20498;-52
2021/04/03 09:05:26;;;;;;;5.03;2.17;;;18.90;40.30;;;;;;4980092;28;20459;-55
2021/04/03 09:07:52;;;;;;;2.60;1.60;;;18.40;41.60;;;;;;4994799;28;20539;-49
2021/04/03 09:10:20;;;;;;;1.70;1.30;;;17.20;43.20;;;;;;5000811;28;20454;-54
2021/04/03 09:12:48;;;;;;;1.90;1.50;;;16.30;44.80;;;;;;5000637;28;20904;-51
2021/04/03 09:15:15;;;;;;;1.90;1.33;;;15.20;46.50;;;;;;5000196;28;20462;-54
2021/04/03 09:17:49;;;;;;;2.87;1.50;;;15.80;48.00;;;;;;5000882;28;20453;-56
2021/04/03 09:20:20;;;;;;;2.53;1.50;;;16.50;46.30;;;;;;5000763;28;20449;-56
2021/04/03 09:22:49;;;;;;;1.80;1.20;;;16.10;46.30;;;;;;5000718;28;20492;-57
2021/04/03 09:25:17;;;;;;;1.60;1.17;;;15.40;47.20;;;;;;5000965;28;20446;-55
2021/04/03 09:27:57;;;;;;;1.67;0.97;;;14.10;48.60;;;;;;5001221;28;20457;-55
2021/04/03 09:30:34;;;;;;;2.37;1.30;;;13.40;50.30;;;;;;5000799;28;20524;-57
2021/04/03 09:33:17;;;;;;;2.27;1.10;;;12.80;51.00;;;;;;5001306;28;20872;-52
2021/04/03 09:35:44;;;;;;;2.90;1.67;;;12.90;52.00;;;;;;5000916;28;20480;-54
2021/04/03 09:38:11;;;;;;;2.07;1.87;;;13.80;50.60;;;;;;5000344;28;20817;-56
2021/04/03 09:40:39;;;;;;;1.70;1.50;;;14.30;49.70;;;;;;5000926;28;20465;-57
2021/04/03 09:43:06;;;;;;;3.50;1.60;;;14.50;49.70;;;;;;5000302;28;20500;-56
2021/04/03 09:45:32;;;;;;;2.37;1.40;;;14.90;48.60;;;;;;4999894;28;20430;-56
2021/04/03 09:47:59;;;;;;;1.73;1.20;;;15.70;47.10;;;;;;4999738;28;20450;-54
2021/04/03 09:50:25;;;;;;;3.60;1.70;;;17.00;46.50;;;;;;4999811;28;20520;-56
2021/04/03 09:52:52;;;;;;;2.13;1.23;;;17.60;44.80;;;;;;4999514;28;20476;-54
2021/04/03 09:55:19;;;;;;;3.53;1.40;;;17.00;43.30;;;;;;4999608;28;20869;-51
2021/04/03 09:57:46;;;;;;;1.40;1.00;;;16.10;44.40;;;;;;4999718;28;20481;-55
2021/04/03 10:00:13;;;;;;;1.93;1.13;;;15.20;46.10;;;;;;5000083;28;20446;-55
2021/04/03 10:02:39;;;;;;;2.10;1.20;;;14.50;47.70;;;;;;4999900;28;20500;-53
2021/04/03 10:05:07;;;;;;;5.63;1.30;;;14.00;48.90;;;;;;5000079;28;20814;-51
2021/04/03 10:07:33;;;;;;;2.20;1.30;;;14.00;49.00;;;;;;4999761;28;20555;-52
2021/04/03 10:09:59;;;;;;;2.90;1.40;;;14.50;48.70;;;;;;5000180;28;20472;-55
2021/04/03 10:12:26;;;;;;;3.13;1.30;;;15.50;46.80;;;;;;4999998;28;20442;-55
2021/04/03 10:14:52;;;;;;;1.93;1.30;;;15.20;45.70;;;;;;4999631;28;20480;-57
2021/04/03 10:17:18;;;;;;;2.40;1.70;;;15.00;46.10;;;;;;5000112;28;20457;-54
2021/04/03 10:19:44;;;;;;;1.60;1.30;;;15.30;46.70;;;;;;4999787;28;20466;-57
2021/04/03 10:22:11;;;;;;;3.70;1.73;;;16.10;47.50;;;;;;4999384;28;20461;-56
2021/04/03 10:24:37;;;;;;;2.27;1.10;;;16.10;45.50;;;;;;4999402;28;20445;-56
2021/04/03 10:27:04;;;;;;;2.50;1.40;;;15.40;46.30;;;;;;4998994;28;20513;-57
2021/04/03 10:29:31;;;;;;;2.13;1.17;;;14.60;47.10;;;;;;4999341;28;20454;-52
2021/04/03 10:31:57;;;;;;;3.90;1.57;;;14.00;48.40;;;;;;4999733;28;20454;-54
2021/04/03 10:34:24;;;;;;;1.97;1.17;;;13.40;48.80;;;;;;4999699;28;20461;-55
2021/04/03 10:36:52;;;;;;;3.70;1.80;;;13.60;50.00;;;;;;5000040;28;20899;-52
2021/04/03 10:39:18;;;;;;;3.10;1.33;;;14.00;49.10;;;;;;4999925;28;20829;-51
2021/04/03 10:41:44;;;;;;;3.37;1.40;;;14.60;49.30;;;;;;4999619;28;20907;-53
2021/04/03 10:44:10;;;;;;;2.27;1.30;;;15.50;47.50;;;;;;4998535;28;20486;-54
2021/04/03 10:46:37;;;;;;;2.20;1.10;;;15.60;45.50;;;;;;4999223;28;20458;-53
2021/04/03 10:49:03;;;;;;;1.20;0.83;;;15.10;45.80;;;;;;4999092;28;20519;-51
2021/04/03 10:51:29;;;;;;;3.63;1.23;;;14.50;46.70;;;;;;4999180;28;20497;-53
2021/04/03 10:53:56;;;;;;;1.20;1.00;;;13.60;47.40;;;;;;4999335;28;20450;-55
2021/04/03 10:56:22;;;;;;;2.30;0.90;;;12.90;48.40;;;;;;5000153;28;20496;-49
2021/04/03 10:58:48;;;;;;;2.43;1.43;;;12.90;49.20;;;;;;4998196;28;20827;-49
2021/04/03 11:01:14;;;;;;;2.30;1.60;;;12.80;49.10;;;;;;4998929;28;20807;-53
2021/04/03 11:03:43;;;;;;;1.33;0.90;;;12.50;47.50;;;;;;4998238;28;20493;-55
2021/04/03 11:06:10;;;;;;;2.20;1.27;;;12.30;47.50;;;;;;4998430;28;20485;-50
2021/04/03 11:11:06;;;;;;;2.63;1.30;;;12.10;45.60;;;;;;5002666;23;20482;-55
2021/04/03 11:13:32;;;;;;;1.50;1.00;;;12.30;45.90;;;;;;4997819;28;20736;-51
2021/04/03 11:15:58;;;;;;;3.73;1.30;;;12.20;48.10;;;;;;4998158;28;20485;-50
2021/04/03 11:18:24;;;;;;;1.80;1.10;;;12.00;49.80;;;;;;4998003;28;20458;-52
2021/04/03 11:20:51;;;;;;;1.80;1.10;;;11.60;50.90;;;;;;4997584;28;20446;-55
2021/04/03 11:23:17;;;;;;;4.20;0.97;;;11.50;52.00;;;;;;4997093;28;20486;-55
2021/04/03 11:25:45;;;;;;;2.07;1.07;;;11.50;53.00;;;;;;4997735;28;20502;-54
2021/04/03 11:28:11;;;;;;;2.77;0.90;;;11.30;53.20;;;;;;4997754;28;20446;-57
2021/04/03 11:30:37;;;;;;;1.10;0.87;;;11.00;53.30;;;;;;4997688;28;20934;-54
2021/04/03 11:33:04;;;;;;;1.20;1.00;;;10.90;53.90;;;;;;4997616;28;20541;-55
2021/04/03 11:35:32;;;;;;;2.03;1.20;;;10.80;54.90;;;;;;4997564;28;20795;-55
2021/04/03 11:37:59;;;;;;;2.23;1.30;;;10.80;55.70;;;;;;4999776;28;20536;-54
2021/04/03 11:40:25;;;;;;;2.13;1.00;;;10.90;55.10;;;;;;5001303;28;20450;-53
2021/04/03 11:42:55;;;;;;;1.87;0.83;;;10.90;54.30;;;;;;5001780;28;20481;-54
2021/04/03 11:45:22;;;;;;;1.63;1.00;;;11.00;54.60;;;;;;5002019;28;20441;-55
2021/04/03 11:47:51;;;;;;;3.23;1.30;;;11.20;54.30;;;;;;5002071;28;20512;-56
2021/04/03 11:50:18;;;;;;;1.87;0.93;;;11.30;54.40;;;;;;5001298;28;20837;-55
2021/04/03 11:52:45;;;;;;;1.83;0.70;;;11.30;53.50;;;;;;5001701;28;20446;-55
2021/04/03 11:55:14;;;;;;;2.87;1.33;;;11.30;53.30;;;;;;5001518;28;20586;-57
2021/04/03 11:57:41;;;;;;;1.30;0.90;;;11.40;53.30;;;;;;5001714;28;20466;-56
2021/04/03 12:00:08;;;;;;;1.83;1.10;;;11.40;53.40;;;;;;5001914;28;20442;-56
2021/04/03 12:02:35;;;;;;;3.13;1.40;;;11.50;53.30;;;;;;5001843;28;20489;-55
2021/04/03 12:05:01;;;;;;;2.40;1.33;;;11.60;54.30;;;;;;5002158;28;20450;-52
2021/04/03 12:07:29;;;;;;;2.57;1.70;;;11.70;52.80;;;;;;5001306;28;20466;-51
2021/04/03 12:09:55;;;;;;;1.47;1.20;;;11.80;52.20;;;;;;5001211;28;20484;-53
2021/04/03 12:12:22;;;;;;;2.67;1.37;;;12.10;51.90;;;;;;5001779;28;20453;-50
2021/04/03 12:14:48;;;;;;;1.60;1.20;;;12.30;51.00;;;;;;5001294;28;20453;-55
2021/04/03 12:17:14;;;;;;;1.90;1.10;;;12.40;50.70;;;;;;5002111;28;20910;-52
2021/04/03 12:19:40;;;;;;;1.33;0.80;;;12.60;49.80;;;;;;5001499;28;20911;-53
2021/04/03 12:22:07;;;;;;;1.97;0.93;;;12.70;46.50;;;;;;5001014;28;20453;-55
2021/04/03 12:24:33;;;;;;;1.47;0.80;;;12.80;45.90;;;;;;5000937;28;20498;-55
2021/04/03 12:26:59;;;;;;;8.70;1.40;;;12.80;46.70;;;;;;5001369;28;20446;-54
2021/04/03 12:29:26;;;;;;;2.87;1.30;;;12.80;47.50;;;;;;5000795;28;20450;-54
2021/04/03 12:31:52;;;;;;;1.50;0.90;;;12.80;48.20;;;;;;5000237;28;20516;-50
2021/04/03 12:34:18;;;;;;;2.70;1.20;;;12.80;49.00;;;;;;5001005;28;20508;-51
2021/04/03 12:36:44;;;;;;;2.23;0.90;;;12.90;48.80;;;;;;5000755;28;20449;-53
2021/04/03 12:39:10;;;;;;;2.90;1.13;;;12.90;48.10;;;;;;5000217;28;20482;-54
2021/04/03 12:41:36;;;;;;;2.03;0.87;;;12.90;47.60;;;;;;5000719;28;20458;-51
2021/04/03 12:44:03;;;;;;;1.40;1.03;;;12.90;45.90;;;;;;5000722;28;20482;-52
2021/04/03 12:46:30;;;;;;;1.97;1.17;;;12.90;45.70;;;;;;5000504;28;20477;-51
2021/04/03 12:48:56;;;;;;;1.27;1.00;;;12.80;44.90;;;;;;5000160;28;20526;-52
2021/04/03 12:51:22;;;;;;;2.17;1.17;;;12.80;44.50;;;;;;5000437;28;20457;-54
2021/04/03 12:53:48;;;;;;;2.03;1.07;;;12.70;44.60;;;;;;5000242;28;20504;-54
2021/04/03 12:56:15;;;;;;;3.63;1.20;;;12.60;44.90;;;;;;5000045;28;20446;-53
2021/04/03 12:58:41;;;;;;;2.80;1.13;;;12.60;44.90;;;;;;5000525;28;20465;-50